Missoula, MT (59801)

2:10 AM MST on February 12, 2016 (GMT -0700)
Franklin to the Fort | | Change Station
CLOSE
Current Station
Personal Weather Station
Location: Missoula, MT
Elevation: 3200 ft
Nearby Weather Stations

Elev 3200 ft 46.86 °N, 114.02 °W | Updated 3 seconds ago

Mostly Cloudy
Mostly Cloudy
39.0 °F
Feels Like 39 °F
N
0.0
Wind Variable Wind from NNE
Gusts 0.0 mph

Today
High -- | Low -- °F
--% Chance of Precip.
Yesterday
High -- | Low -- °F
Precip. -- in
Pressure 30.31 in
Visibility 7.0 miles
Clouds Mostly Cloudy 4100 ft
Overcast 4800 ft
Windchill 39 °F
Dew Point 38 °F
Humidity 96%
Rainfall 0.04 in
Snow Depth Not available.
7:45 AM 5:55 PM
Waxing Crescent, 19% visible
METAR KMSO 120853Z AUTO 00000KT 7SM -RA BKN041 OVC048 02/02 A3026 RMK AO2 SLP263 P0001 60004 T00220017 50003 TSNO
Pressure 30.31 in
Visibility 7.0 miles
Clouds Mostly Cloudy 4100 ft
Overcast 4800 ft
Windchill 39 °F
Dew Point 38 °F
Humidity 96%
Rainfall 0.04 in
Snow Depth Not available.
7:45 AM 5:55 PM
Waxing Crescent, 19% visible
METAR KMSO 120853Z AUTO 00000KT 7SM -RA BKN041 OVC048 02/02 A3026 RMK AO2 SLP263 P0001 60004 T00220017 50003 TSNO

10-Day Weather Forecast

Almanac

Astronomy

Feb. 12, 2016 Rise Set
Actual Time
Civil Twilight
Nautical Twilight
Astronomical Twilight
Moon
Length of Visible Light
Length of Day
Tomorrow will be .
, % of the Moon is Illuminated

Today's Extremes

State Highs State Lows

Community

WunderPhotos

Upload Photos

1,892,286 photos uploaded!

WunderBlog® & News

Nearby

Air Quality

  Air Quality AQ Index Pollutant
Not available.

Snow Depth

Station Depth Elevation

Earthquake Activity

City Distance Mag. Time & Date
Minimum magnitude displayed is 2.5.

Coastal Water Temperatures

Place Temperature

Stations

Nearby Weather Stations

Station Location Temp. Windchill Dew Point Humidity Wind Precip. Elev Updated Type
                   

Watches & Warnings

There are currently no watches in effect.